Weather at Whidbey Island Naval Air Station (Ault Field)

Public forecast

Using degrees Fahrenheit for public forecast. Weather courtesy of forecast.io.

Current aviation weather report (METAR) for Whidbey Island Naval Air Station (Ault Field)

Retrieved 2021/11/30 14:07 UTC (19 minutes ago):

KNUW 301407Z 00000KT 8SM SCT012 BKN017 OVC110 11/09 A3012 RMK AO2 RAE06 P0000 T01060094

Aviation forecast (TAF) for Whidbey Island Naval Air Station (Ault Field)

Forecast is more than 12 hours old.

Retrieved 2015/01/16 19:45 UTC (7 years ago):

TAF COR KNUW 161900Z 1619/1715 21007KT 9999 VCSH FEW007 SCT025 BKN035 OVC080 5341809 532709 536604 QNH3010INS TEMPO 1619/1621 17008KT BKN030 OVC080 FM170000 15010KT 9999 VCSH FEW025 SCT040 BKN060 BKN100 BKN250 531809 532709 533604 QNH3018INS TEMPO 1700/1706 11007KT 9000 BR SCT010 BKN020 OVC060 FM170400 13010KT 9999 VCSH FEW025 BKN040 BKN100 BKN180 500000 QNH2994INS TEMPO 1709/1715 14012G16KT 9999 BKN025 T11/1623Z T06/1714Z COR 2015Z FS30004